Temple, GA (30179)

12:52 PM EDT on March 30, 2017 (GMT -0400)
Amy Ridge | | Change Station

Elev 1188 ft 33.74 °N, 85.05 °W | Updated 9 seconds ago

Overcast
Overcast
77.9 °F
Feels Like 79 °F
N
0.0
Wind Variable Wind from NNE
Gusts 1.1 mph

Today
High -- | Low -- °F
--% Chance of Precip.
Yesterday
High -- | Low -- °F
Precip. -- in
Pressure 29.99 in
Visibility 10.0 miles
Clouds Mostly Cloudy 3500 ft
Mostly Cloudy 4000 ft
Heat Index 79 °F
Dew Point 55 °F
Humidity 45%
Rainfall 0.00 in
Snow Depth Not available.
7:29 AM 7:59 PM
Waxing Crescent, 9% visible
METAR KCTJ 301635Z AUTO 15007KT 10SM BKN035 BKN040 23/15 A2999 RMK AO2 T02310151
Pressure 29.99 in
Visibility 10.0 miles
Clouds Mostly Cloudy 3500 ft
Mostly Cloudy 4000 ft
Heat Index 79 °F
Dew Point 55 °F
Humidity 45%
Rainfall 0.00 in
Snow Depth Not available.
7:29 AM 7:59 PM
Waxing Crescent, 9% visible
METAR KCTJ 301635Z AUTO 15007KT 10SM BKN035 BKN040 23/15 A2999 RMK AO2 T02310151

Get Severe Weather Alerts

Thanks for signing up!

Be on the lookout for a verification email in your inbox.

You'll start receiving the daily forecast at 8 AM.

×

10-Day Weather Forecast

Almanac

Astronomy

Mar. 30, 2017 Rise Set
Actual Time
Civil Twilight
Nautical Twilight
Astronomical Twilight
Moon
Length of Visible Light
Length of Day
Tomorrow will be .
, % of the Moon is Illuminated

Today's Extremes

State Highs State Lows

Community

WunderPhotos

Upload Photos

1,962,540 photos uploaded!

WunderBlog® & News

Nearby

Air Quality

  Air Quality AQ Index Pollutant
Not available.

Snow Depth

Station Depth Elevation

Earthquake Activity

City Distance Mag. Time & Date
Minimum magnitude displayed is 2.5.

Earthquake Activity

City Distance Mag. Time & Date
Minimum magnitude displayed is 2.5.

Coastal Water Temperatures

Place Temperature

Stations

Nearby Weather Stations

Station Location Temp. Windchill Dew Point Humidity Wind Precip. Elev Updated Type
                   

Watches & Warnings

There are currently no watches in effect.